Latest Coastal Weather Observations for Creal Reef

IDQ60701

Issued at 8:12 am EST Friday 24 March 2017 (issued every 10 minutes, with the page automatically refreshed every 10 minutes)

About coastal observations | Map of coastal stations | Coastal observations for QLD | Marine services | Other Formats
Station Details ID: 200736 Name: CREAL REEF Lat: -20.53 Lon: 150.38 Height: 1.7 m
Data from the previous 72 hours. | See also: Recent months for locations in Queensland
Date/Time
EST
Temp
°C
Wind Pressure Rain since
9am
mm
Weather Cloud Vis
km
Sea
Height
m
Swell
Dir  Spd
kts
Gust
kts
hPa Trend Height
m
Period
s
Dir
24/08:00am 28.3 ESE 20 24 1010.2 - - - - - - - - -
24/07:30am 28.6 ESE 20 23 1010.2 - - - - - - - - -
24/07:20am 28.5 ESE 20 - 1010.0 - - - - - - - - -
24/07:00am 28.4 ESE 20 24 1009.8 - - - - - - - - -
24/06:30am 28.1 ESE 18 20 1009.6 - - - - - - - - -
24/06:20am 27.9 ESE 19 - 1009.5 - - - - - - - - -
24/06:00am 28.4 ESE 20 23 1009.3 - - - - - - - - -
24/05:30am 28.4 ESE 20 23 1009.0 - - - - - - - - -
24/05:20am 28.3 ESE 19 - 1008.9 - - - - - - - - -
24/05:00am 28.4 ESE 20 22 1008.7 - - - - - - - - -
24/04:30am 28.6 ESE 21 23 1008.5 - - - - - - - - -
24/04:20am 28.4 ESE 20 - 1008.4 - - - - - - - - -
24/04:00am 28.4 ESE 20 22 1008.3 - - - - - - - - -
24/03:30am 28.4 ESE 20 23 1008.5 - - - - - - - - -
24/03:20am 28.4 ESE 19 - 1008.6 - - - - - - - - -
24/03:00am 28.3 ESE 17 21 1008.6 - - - - - - - - -
24/02:30am 28.3 E 18 21 1008.7 - - - - - - - - -
24/02:20am 28.3 E 19 - 1008.9 - - - - - - - - -
24/02:00am 28.3 E 16 21 1009.0 - - - - - - - - -
24/01:30am 28.0 ESE 14 16 1009.3 - - - - - - - - -
24/01:20am 27.8 ESE 15 - 1009.6 - - - - - - - - -
24/01:00am 27.7 ESE 15 17 1009.9 - - - - - - - - -
24/12:30am 27.5 ESE 16 18 1010.0 - - - - - - - - -
24/12:20am 27.5 ESE 15 - 1010.0 - - - - - - - - -
24/12:00am 27.7 ESE 14 16 1010.5 - - - - - - - - -
 
Date/Time
EST
Temp
°C
Wind Pressure Rain since
9am
mm
Weather Cloud Vis
km
Sea
Height
m
Swell
Dir  Spd
kts
Gust
kts
hPa Trend Height
m
Period
s
Dir
23/11:30pm 27.7 E 16 18 1010.9 - - - - - - - - -
23/11:20pm 27.6 ESE 18 - 1010.9 - - - - - - - - -
23/11:00pm 27.6 ESE 21 24 1011.2 - - - - - - - - -
23/10:39pm 27.5 ESE 17 25 1011.5 - - - - - - - - -
23/10:30pm 27.8 SE 13 15 1011.6 - - - - - - - - -
23/10:20pm 27.5 SE 13 - 1011.6 - - - - - - - - -
23/10:00pm 27.4 ESE 13 15 1011.7 - - - - - - - - -
23/09:30pm 27.1 E 10 12 1011.7 - - - - - - - - -
23/09:20pm 26.6 ESE 11 - 1011.5 - - - - - - - - -
23/09:00pm 26.5 E 10 13 1011.6 - - - - - - - - -
23/08:30pm 25.9 ESE 11 14 1011.9 - - - - - - - - -
23/08:20pm 25.8 ESE 13 - 1011.6 - - - - - - - - -
23/08:00pm 25.5 E 13 14 1011.6 - - - - - - - - -
23/07:30pm 26.0 E 12 16 1011.4 - - - - - - - - -
23/07:20pm 26.6 E 14 - 1011.3 - - - - - - - - -
23/07:00pm 26.3 E 10 11 1011.3 - - - - - - - - -
23/06:30pm 25.8 ENE 9 11 1010.4 - - - - - - - - -
23/06:20pm 25.8 NE 10 - 1010.3 - - - - - - - - -
23/06:00pm 25.2 NE 11 13 1010.2 - - - - - - - - -
23/05:30pm 25.0 NNE 15 17 1010.4 - - - - - - - - -
23/05:20pm 25.3 NNE 19 - 1010.1 - - - - - - - - -
23/05:15pm 25.5 NNE 20 24 1010.2 - - - - - - - - -
23/05:00pm 26.0 ENE 24 28 1010.2 - - - - - - - - -
23/04:44pm 26.2 ENE 24 27 1010.0 - - - - - - - - -
23/04:30pm 27.5 E 6 7 1009.3 - - - - - - - - -
23/04:20pm 27.5 E 5 - 1009.4 - - - - - - - - -
23/04:00pm 27.4 ENE 4 5 1009.5 - - - - - - - - -
23/03:30pm 27.0 ENE 7 8 1009.6 - - - - - - - - -
23/03:20pm 27.0 ENE 8 - 1009.5 - - - - - - - - -
23/03:00pm 27.0 ENE 9 10 1009.3 - - - - - - - - -
23/02:30pm 26.7 NE 12 14 1009.1 - - - - - - - - -
23/02:20pm 26.7 NE 12 - 1009.1 - - - - - - - - -
23/02:00pm 26.8 NNE 13 15 1009.5 - - - - - - - - -
23/01:30pm 26.5 NNE 16 19 1009.9 - - - - - - - - -
23/01:20pm 26.6 NNE 19 - 1009.9 - - - - - - - - -
23/01:11pm 26.8 NE 20 23 1010.2 - - - - - - - - -
23/01:00pm 27.4 E 18 20 1010.2 - - - - - - - - -
23/12:30pm 27.7 E 16 18 1010.1 - - - - - - - - -
23/12:20pm 27.5 E 17 - 1009.9 - - - - - - - - -
23/12:00pm 27.6 E 19 21 1010.4 - - - - - - - - -
23/11:30am 28.0 E 19 21 1010.9 - - - - - - - - -
23/11:20am 27.9 E 17 - 1011.0 - - - - - - - - -
23/11:00am 27.7 E 15 17 1011.5 - - - - - - - - -
23/10:30am 27.3 E 16 18 1011.9 - - - - - - - - -
23/10:20am 27.0 E 16 - 1011.6 - - - - - - - - -
23/10:00am 26.6 E 17 20 1011.7 - - - - - - - - -
23/09:30am 26.1 ENE 20 22 1011.9 - - - - - - - - -
23/09:20am 26.5 E 20 - 1012.0 - - - - - - - - -
23/09:00am 27.0 ENE 20 23 1012.0 - - - - - - - - -
23/08:52am 27.0 ENE 20 23 1012.0 - - - - - - - - -
23/08:30am 26.9 NNE 17 20 1011.6 - - - - - - - - -
23/08:20am 26.2 NNE 21 - 1011.2 - - - - - - - - -
23/08:02am 26.9 NNE 22 27 1010.8 - - - - - - - - -
23/08:00am 28.3 ENE 14 23 1011.0 - - - - - - - - -
23/07:30am 28.4 ENE 11 13 1010.8 - - - - - - - - -
23/07:20am 28.3 E 11 - 1010.7 - - - - - - - - -
23/07:00am 28.2 ENE 11 13 1010.5 - - - - - - - - -
23/06:30am 28.0 NE 10 12 1009.9 - - - - - - - - -
23/06:20am 28.0 NNE 11 - 1009.7 - - - - - - - - -
23/06:00am 28.4 ENE 12 13 1009.7 - - - - - - - - -
23/05:30am 28.3 ENE 12 15 1009.5 - - - - - - - - -
23/05:20am 28.0 ENE 11 - 1009.2 - - - - - - - - -
23/05:00am 28.1 ENE 10 12 1008.9 - - - - - - - - -
23/04:30am 27.9 ENE 9 11 1008.9 - - - - - - - - -
23/04:20am 28.0 ENE 9 - 1008.9 - - - - - - - - -
23/04:00am 27.9 ENE 10 11 1008.6 - - - - - - - - -
23/03:30am 27.9 ENE 10 11 1008.6 - - - - - - - - -
23/03:20am 27.8 ENE 10 - 1008.6 - - - - - - - - -
23/03:00am 27.9 ENE 11 12 1008.7 - - - - - - - - -
23/02:30am 27.8 ENE 11 13 1008.7 - - - - - - - - -
23/02:20am 27.8 ENE 11 - 1008.8 - - - - - - - - -
23/02:00am 27.9 ENE 12 14 1009.0 - - - - - - - - -
23/01:30am 27.5 ENE 10 11 1009.6 - - - - - - - - -
23/01:20am 27.5 ENE 8 - 1009.6 - - - - - - - - -
23/01:00am 27.3 NE 9 11 1009.7 - - - - - - - - -
23/12:30am 26.7 E 12 15 1010.4 - - - - - - - - -
23/12:20am 26.6 E 14 - 1010.4 - - - - - - - - -
23/12:00am 27.8 ENE 10 11 1010.6 - - - - - - - - -
 
Date/Time
EST
Temp
°C
Wind Pressure Rain since
9am
mm
Weather Cloud Vis
km
Sea
Height
m
Swell
Dir  Spd
kts
Gust
kts
hPa Trend Height
m
Period
s
Dir
22/11:30pm 27.8 ENE 9 11 1010.8 - - - - - - - - -
22/11:20pm 27.8 ENE 10 - 1010.8 - - - - - - - - -
22/11:00pm 27.6 ENE 11 13 1011.1 - - - - - - - - -
22/10:30pm 27.7 ENE 12 13 1010.8 - - - - - - - - -
22/10:20pm 27.5 ENE 12 - 1010.6 - - - - - - - - -
22/10:00pm 27.6 NE 12 14 1010.7 - - - - - - - - -
22/09:30pm 27.4 ENE 14 16 1010.7 - - - - - - - - -
22/09:20pm 27.5 ENE 14 - 1010.5 - - - - - - - - -
22/09:00pm 27.5 ENE 15 17 1010.7 - - - - - - - - -
22/08:30pm 27.3 ENE 16 18 1010.3 - - - - - - - - -
22/08:20pm 27.2 ENE 16 - 1010.1 - - - - - - - - -
22/08:00pm 27.3 ENE 17 19 1009.9 - - - - - - - - -
22/07:30pm 27.3 ENE 16 19 1009.5 - - - - - - - - -
22/07:20pm 27.2 ENE 16 - 1009.3 - - - - - - - - -
22/07:00pm 27.1 NE 15 17 1009.1 - - - - - - - - -
22/06:30pm 27.2 NE 15 18 1008.8 - - - - - - - - -
22/06:20pm 27.2 NE 16 - 1008.6 - - - - - - - - -
22/06:00pm 27.0 NE 17 19 1008.5 - - - - - - - - -
22/05:30pm 27.1 ENE 16 18 1008.2 - - - - - - - - -
22/05:20pm 27.2 ENE 16 - 1008.2 - - - - - - - - -
22/05:00pm 26.7 E 17 19 1008.2 - - - - - - - - -
22/04:30pm 26.8 E 19 21 1008.3 - - - - - - - - -
22/04:20pm 26.8 E 19 - 1008.4 - - - - - - - - -
22/04:00pm 27.0 E 17 20 1008.5 - - - - - - - - -
22/03:30pm 27.1 ENE 17 19 1008.5 - - - - - - - - -
22/03:20pm 27.2 ENE 16 - 1008.4 - - - - - - - - -
22/03:00pm 26.9 E 16 19 1008.3 - - - - - - - - -
22/02:30pm 27.0 E 14 15 1008.5 - - - - - - - - -
22/02:20pm 27.0 E 13 - 1008.5 - - - - - - - - -
22/02:00pm 27.1 E 12 15 1008.8 - - - - - - - - -
22/01:30pm 27.0 ENE 9 11 1009.3 - - - - - - - - -
22/01:20pm 27.0 E 8 - 1009.3 - - - - - - - - -
22/01:00pm 26.7 E 9 11 1009.1 - - - - - - - - -
22/12:30pm 26.6 E 7 8 1009.3 - - - - - - - - -
22/12:20pm 26.7 E 6 - 1009.5 - - - - - - - - -
22/12:00pm 26.3 E 7 8 1010.1 - - - - - - - - -
22/11:30am 26.1 E 6 8 1010.7 - - - - - - - - -
22/11:20am 26.3 ENE 7 - 1010.7 - - - - - - - - -
22/11:00am 26.1 NE 7 8 1010.9 - - - - - - - - -
22/10:30am 25.8 NNE 9 11 1010.9 - - - - - - - - -
22/10:20am 26.0 NNE 10 - 1010.8 - - - - - - - - -
22/10:00am 26.0 N 10 11 1010.6 - - - - - - - - -
22/09:30am 25.9 N 10 11 1010.8 - - - - - - - - -
22/09:20am 25.7 N 9 - 1010.8 - - - - - - - - -
22/09:00am 25.2 N 8 9 1011.3 - - - - - - - - -
22/08:30am 25.1 N 10 12 1011.2 - - - - - - - - -
22/08:20am 25.3 N 10 - 1011.0 - - - - - - - - -
22/08:00am 25.4 N 15 18 1010.9 - - - - - - - - -
22/07:30am 24.8 NNE 13 16 1010.3 - - - - - - - - -
22/07:20am 24.7 NNE 16 - 1010.2 - - - - - - - - -
22/07:08am 25.1 NNE 19 21 1010.2 - - - - - - - - -
22/07:00am 26.2 NNE 6 10 1010.1 - - - - - - - - -
22/06:30am 25.8 CALM 0 0 1009.5 - - - - - - - - -
22/06:20am 25.7 ENE 1 - 1009.5 - - - - - - - - -
22/06:00am 25.9 NNE 6 7 1009.0 - - - - - - - - -
22/05:30am 25.9 N 14 15 1009.0 - - - - - - - - -
22/05:20am 26.0 N 13 - 1009.0 - - - - - - - - -
22/05:00am 26.2 NNE 7 9 1008.9 - - - - - - - - -
22/04:30am 25.8 NNE 9 11 1008.6 - - - - - - - - -
22/04:20am 25.6 NNE 13 - 1008.4 - - - - - - - - -
22/04:00am 26.0 N 16 19 1008.2 - - - - - - - - -
22/03:30am 26.6 ENE 12 16 1008.1 - - - - - - - - -
22/03:20am 26.9 NNE 15 - 1008.1 - - - - - - - - -
22/03:00am 26.6 NNE 14 16 1008.1 - - - - - - - - -
22/02:30am 25.6 NE 24 27 1008.3 - - - - - - - - -
22/02:20am 25.0 NE 27 - 1008.4 - - - - - - - - -
22/02:07am 26.8 NNE 17 28 1008.4 - - - - - - - - -
22/02:00am 27.1 N 14 16 1008.4 - - - - - - - - -
22/01:30am 27.6 NNE 15 24 1008.4 - - - - - - - - -
22/01:20am 27.8 NNE 11 - 1008.6 - - - - - - - - -
22/01:00am 27.2 NNE 15 20 1008.8 - - - - - - - - -
22/12:30am 26.6 ENE 16 18 1009.5 - - - - - - - - -
22/12:20am 26.6 ENE 16 - 1009.5 - - - - - - - - -
22/12:00am 27.0 ENE 12 14 1009.9 - - - - - - - - -
 
Date/Time
EST
Temp
°C
Wind Pressure Rain since
9am
mm
Weather Cloud Vis
km
Sea
Height
m
Swell
Dir  Spd
kts
Gust
kts
hPa Trend Height
m
Period
s
Dir
21/11:30pm 26.3 NE 14 18 1010.4 - - - - - - - - -
21/11:20pm 26.7 E 15 - 1010.2 - - - - - - - - -
21/11:00pm 26.7 E 18 23 1010.3 - - - - - - - - -
21/10:30pm 27.0 E 24 27 1010.6 - - - - - - - - -
21/10:20pm 26.9 E 23 - 1010.5 - - - - - - - - -
21/10:13pm 27.1 E 23 27 1010.5 - - - - - - - - -
21/10:00pm 28.1 ENE 17 21 1010.6 - - - - - - - - -
21/09:30pm 27.9 ENE 17 20 1010.5 - - - - - - - - -
21/09:20pm 27.0 ENE 19 - 1010.4 - - - - - - - - -
21/09:00pm 28.5 ENE 16 19 1010.2 - - - - - - - - -
21/08:30pm 28.4 NE 15 17 1010.0 - - - - - - - - -
21/08:20pm 28.4 NE 15 - 1009.9 - - - - - - - - -
21/08:00pm 28.3 NE 16 18 1009.9 - - - - - - - - -
21/07:30pm 28.4 NE 16 19 1009.8 - - - - - - - - -
21/07:20pm 28.4 ENE 16 - 1009.6 - - - - - - - - -
21/07:00pm 28.2 ENE 16 19 1009.5 - - - - - - - - -
21/06:30pm 28.3 ENE 17 19 1009.3 - - - - - - - - -
21/06:20pm 28.0 ENE 17 - 1009.2 - - - - - - - - -
21/06:00pm 28.2 ENE 17 20 1009.1 - - - - - - - - -
21/05:30pm 28.3 ENE 16 18 1008.5 - - - - - - - - -
21/05:20pm 28.3 ENE 17 - 1008.4 - - - - - - - - -
21/05:00pm 28.3 ENE 15 17 1008.3 - - - - - - - - -
21/04:30pm 28.0 ENE 15 17 1008.3 - - - - - - - - -
21/04:20pm 28.2 ENE 16 - 1008.3 - - - - - - - - -
21/04:00pm 27.9 ENE 17 20 1008.1 - - - - - - - - -
21/03:30pm 28.2 ENE 17 20 1008.1 - - - - - - - - -
21/03:20pm 28.1 ENE 17 - 1008.2 - - - - - - - - -
21/03:00pm 28.0 ENE 17 20 1008.4 - - - - - - - - -
21/02:30pm 27.8 ENE 17 19 1008.4 - - - - - - - - -
21/02:20pm 27.8 ENE 17 - 1008.4 - - - - - - - - -
21/02:00pm 27.8 E 19 21 1008.4 - - - - - - - - -
21/01:30pm 27.6 E 18 20 1008.4 - - - - - - - - -
21/01:20pm 27.4 E 17 - 1008.6 - - - - - - - - -
21/01:00pm 27.4 E 18 21 1008.9 - - - - - - - - -
21/12:30pm 27.0 E 20 22 1009.6 - - - - - - - - -
21/12:20pm 27.2 E 20 - 1009.6 - - - - - - - - -
21/12:00pm 27.6 E 21 25 1010.2 - - - - - - - - -
21/11:30am 27.3 E 19 21 1010.9 - - - - - - - - -
21/11:20am 27.3 E 18 - 1010.9 - - - - - - - - -
21/11:00am 27.0 E 19 22 1011.2 - - - - - - - - -
21/10:30am 27.1 E 21 24 1011.5 - - - - - - - - -
21/10:20am 27.0 E 18 - 1011.3 - - - - - - - - -
21/10:00am 26.8 E 19 21 1011.4 - - - - - - - - -
21/09:30am 27.1 E 15 19 1011.3 - - - - - - - - -
21/09:20am 26.8 E 12 - 1011.3 - - - - - - - - -
21/09:00am 26.4 E 11 13 1011.4 - - - - - - - - -
21/08:30am 26.1 E 11 13 1011.3 - - - - - - - - -
21/08:20am 26.0 E 11 - 1011.0 - - - - - - - - -

Other Formats:

Comma delimited format used in spreadsheet applications
http://www.bom.gov.au/fwo/IDQ60701/IDQ60701.94371.axf

JavaScript Object Notation format (JSON) in row-major order
http://www.bom.gov.au/fwo/IDQ60701/IDQ60701.94371.json